sensor_id;sensor_type;location;lat;lon;timestamp;pressure;altitude;pressure_sealevel;temperature;humidity
4745;BME280;2386;42.138;24.746;2023-04-09T00:01:06;99978.47;;;9.81;100.00
4745;BME280;2386;42.138;24.746;2023-04-09T00:03:32;99990.53;;;9.85;100.00
4745;BME280;2386;42.138;24.746;2023-04-09T00:05:58;99989.00;;;9.96;100.00
4745;BME280;2386;42.138;24.746;2023-04-09T00:08:23;99980.31;;;9.87;100.00
4745;BME280;2386;42.138;24.746;2023-04-09T00:10:49;99988.88;;;9.84;100.00
4745;BME280;2386;42.138;24.746;2023-04-09T00:13:15;99978.56;;;10.00;100.00
4745;BME280;2386;42.138;24.746;2023-04-09T00:15:40;99988.53;;;10.06;100.00
4745;BME280;2386;42.138;24.746;2023-04-09T00:18:06;99991.34;;;9.93;100.00
4745;BME280;2386;42.138;24.746;2023-04-09T00:20:31;99996.94;;;9.98;100.00
4745;BME280;2386;42.138;24.746;2023-04-09T00:22:56;99993.03;;;9.87;100.00
4745;BME280;2386;42.138;24.746;2023-04-09T00:25:22;99995.53;;;9.88;100.00
4745;BME280;2386;42.138;24.746;2023-04-09T00:27:48;100001.00;;;10.20;100.00
4745;BME280;2386;42.138;24.746;2023-04-09T00:30:13;100002.50;;;10.09;100.00
4745;BME280;2386;42.138;24.746;2023-04-09T00:32:40;100001.47;;;10.04;100.00
4745;BME280;2386;42.138;24.746;2023-04-09T00:35:05;99997.53;;;10.00;100.00
4745;BME280;2386;42.138;24.746;2023-04-09T00:37:31;100001.56;;;9.91;100.00
4745;BME280;2386;42.138;24.746;2023-04-09T00:39:56;100007.41;;;9.87;100.00
4745;BME280;2386;42.138;24.746;2023-04-09T00:42:22;100017.44;;;9.80;100.00
4745;BME280;2386;42.138;24.746;2023-04-09T00:44:47;100006.66;;;9.67;100.00
4745;BME280;2386;42.138;24.746;2023-04-09T00:47:13;100001.88;;;9.69;100.00
4745;BME280;2386;42.138;24.746;2023-04-09T00:49:38;100014.72;;;9.80;100.00
4745;BME280;2386;42.138;24.746;2023-04-09T00:52:04;100012.97;;;9.61;100.00
4745;BME280;2386;42.138;24.746;2023-04-09T00:54:29;100017.63;;;9.85;100.00
4745;BME280;2386;42.138;24.746;2023-04-09T00:56:56;99999.25;;;9.56;100.00
4745;BME280;2386;42.138;24.746;2023-04-09T00:59:23;100004.50;;;9.82;100.00
4745;BME280;2386;42.138;24.746;2023-04-09T01:01:49;100015.38;;;9.76;100.00
4745;BME280;2386;42.138;24.746;2023-04-09T01:04:14;100006.75;;;9.54;100.00
4745;BME280;2386;42.138;24.746;2023-04-09T01:09:16;100012.97;;;9.61;100.00
4745;BME280;2386;42.138;24.746;2023-04-09T01:14:52;100008.41;;;9.55;100.00
4745;BME280;2386;42.138;24.746;2023-04-09T01:17:43;100011.84;;;9.31;100.00
4745;BME280;2386;42.138;24.746;2023-04-09T01:20:13;100009.97;;;9.25;100.00
4745;BME280;2386;42.138;24.746;2023-04-09T01:30:44;100012.31;;;9.08;100.00
4745;BME280;2386;42.138;24.746;2023-04-09T01:33:13;100006.28;;;8.93;100.00
4745;BME280;2386;42.138;24.746;2023-04-09T01:35:45;100015.00;;;9.01;100.00
4745;BME280;2386;42.138;24.746;2023-04-09T01:38:12;100018.31;;;9.16;100.00
4745;BME280;2386;42.138;24.746;2023-04-09T01:40:38;100014.16;;;9.14;100.00
4745;BME280;2386;42.138;24.746;2023-04-09T01:43:06;100004.81;;;9.10;100.00
4745;BME280;2386;42.138;24.746;2023-04-09T01:45:33;100015.19;;;9.13;100.00
4745;BME280;2386;42.138;24.746;2023-04-09T01:47:59;100020.63;;;9.13;100.00
4745;BME280;2386;42.138;24.746;2023-04-09T01:50:25;100028.31;;;9.09;100.00
4745;BME280;2386;42.138;24.746;2023-04-09T01:52:51;100020.63;;;9.13;100.00
4745;BME280;2386;42.138;24.746;2023-04-09T01:55:17;100022.25;;;9.20;100.00
4745;BME280;2386;42.138;24.746;2023-04-09T01:57:42;100025.59;;;9.22;100.00
4745;BME280;2386;42.138;24.746;2023-04-09T02:00:08;100022.50;;;8.99;100.00
4745;BME280;2386;42.138;24.746;2023-04-09T02:02:58;100024.78;;;9.02;100.00
4745;BME280;2386;42.138;24.746;2023-04-09T02:05:28;100020.84;;;8.98;100.00
4745;BME280;2386;42.138;24.746;2023-04-09T02:07:57;100031.66;;;8.98;100.00
4745;BME280;2386;42.138;24.746;2023-04-09T02:10:26;100038.09;;;9.10;100.00
4745;BME280;2386;42.138;24.746;2023-04-09T02:12:53;100024.16;;;9.13;100.00
4745;BME280;2386;42.138;24.746;2023-04-09T02:15:20;100029.72;;;9.32;100.00
4745;BME280;2386;42.138;24.746;2023-04-09T02:17:46;100034.97;;;9.20;100.00
4745;BME280;2386;42.138;24.746;2023-04-09T02:20:16;100022.72;;;9.04;100.00
4745;BME280;2386;42.138;24.746;2023-04-09T02:22:41;100035.84;;;9.01;100.00
4745;BME280;2386;42.138;24.746;2023-04-09T02:25:07;100035.19;;;9.18;100.00
4745;BME280;2386;42.138;24.746;2023-04-09T02:27:32;100028.28;;;9.29;100.00
4745;BME280;2386;42.138;24.746;2023-04-09T02:29:58;100038.44;;;9.47;100.00
4745;BME280;2386;42.138;24.746;2023-04-09T02:32:23;100035.13;;;9.38;100.00
4745;BME280;2386;42.138;24.746;2023-04-09T02:34:48;100036.38;;;9.36;100.00
4745;BME280;2386;42.138;24.746;2023-04-09T02:37:14;100024.53;;;9.30;100.00
4745;BME280;2386;42.138;24.746;2023-04-09T02:39:39;100032.19;;;9.46;100.00
4745;BME280;2386;42.138;24.746;2023-04-09T02:42:05;100039.13;;;9.29;100.00
4745;BME280;2386;42.138;24.746;2023-04-09T02:44:32;100039.09;;;9.36;100.00
4745;BME280;2386;42.138;24.746;2023-04-09T02:46:57;100034.44;;;9.56;100.00
4745;BME280;2386;42.138;24.746;2023-04-09T02:49:23;100039.09;;;9.36;100.00
4745;BME280;2386;42.138;24.746;2023-04-09T02:51:48;100030.13;;;9.42;100.00
4745;BME280;2386;42.138;24.746;2023-04-09T02:54:13;100026.38;;;9.43;100.00
4745;BME280;2386;42.138;24.746;2023-04-09T02:56:39;100026.38;;;9.36;100.00
4745;BME280;2386;42.138;24.746;2023-04-09T02:59:04;100045.09;;;9.51;100.00
4745;BME280;2386;42.138;24.746;2023-04-09T03:01:29;100045.09;;;9.51;100.00
4745;BME280;2386;42.138;24.746;2023-04-09T03:03:55;100044.69;;;9.47;100.00
4745;BME280;2386;42.138;24.746;2023-04-09T03:06:20;100038.41;;;9.60;100.00
4745;BME280;2386;42.138;24.746;2023-04-09T03:08:45;100038.44;;;9.47;100.00
4745;BME280;2386;42.138;24.746;2023-04-09T03:11:11;100038.25;;;9.35;100.00
4745;BME280;2386;42.138;24.746;2023-04-09T03:13:36;100033.47;;;9.31;100.00
4745;BME280;2386;42.138;24.746;2023-04-09T03:16:01;100032.00;;;9.41;100.00
4745;BME280;2386;42.138;24.746;2023-04-09T03:18:27;100026.78;;;9.40;100.00
4745;BME280;2386;42.138;24.746;2023-04-09T03:20:52;100028.72;;;9.19;100.00
4745;BME280;2386;42.138;24.746;2023-04-09T03:23:18;100034.56;;;9.16;100.00
4745;BME280;2386;42.138;24.746;2023-04-09T03:25:43;100032.28;;;9.13;100.00
4745;BME280;2386;42.138;24.746;2023-04-09T03:28:08;100024.56;;;9.23;100.00
4745;BME280;2386;42.138;24.746;2023-04-09T03:30:34;100023.91;;;9.28;100.00
4745;BME280;2386;42.138;24.746;2023-04-09T03:32:59;100034.34;;;9.25;100.00
4745;BME280;2386;42.138;24.746;2023-04-09T03:35:25;100032.84;;;9.35;100.00
4745;BME280;2386;42.138;24.746;2023-04-09T03:37:50;100041.38;;;9.39;100.00
4745;BME280;2386;42.138;24.746;2023-04-09T03:40:16;100039.88;;;9.49;100.00
4745;BME280;2386;42.138;24.746;2023-04-09T03:42:42;100040.13;;;9.41;100.00
4745;BME280;2386;42.138;24.746;2023-04-09T03:45:07;100045.56;;;9.35;100.00
4745;BME280;2386;42.138;24.746;2023-04-09T03:47:33;100045.94;;;9.45;100.00
4745;BME280;2386;42.138;24.746;2023-04-09T03:49:58;100043.06;;;9.27;100.00
4745;BME280;2386;42.138;24.746;2023-04-09T03:52:23;100041.59;;;9.31;100.00
4745;BME280;2386;42.138;24.746;2023-04-09T03:54:49;100045.31;;;9.43;100.00
4745;BME280;2386;42.138;24.746;2023-04-09T03:57:14;100048.88;;;9.37;100.00
4745;BME280;2386;42.138;24.746;2023-04-09T03:59:40;100050.56;;;9.31;100.00
4745;BME280;2386;42.138;24.746;2023-04-09T04:02:06;100051.41;;;9.25;100.00
4745;BME280;2386;42.138;24.746;2023-04-09T04:04:31;100059.28;;;9.46;100.00
4745;BME280;2386;42.138;24.746;2023-04-09T04:06:56;100059.31;;;9.33;100.00
4745;BME280;2386;42.138;24.746;2023-04-09T04:09:22;100065.16;;;9.23;100.00
4745;BME280;2386;42.138;24.746;2023-04-09T04:11:47;100060.56;;;9.31;100.00
4745;BME280;2386;42.138;24.746;2023-04-09T04:14:12;100055.56;;;9.28;100.00
4745;BME280;2386;42.138;24.746;2023-04-09T04:16:41;100062.88;;;9.20;100.00
4745;BME280;2386;42.138;24.746;2023-04-09T04:19:06;100058.50;;;9.13;100.00
4745;BME280;2386;42.138;24.746;2023-04-09T04:21:32;100059.31;;;9.27;100.00
4745;BME280;2386;42.138;24.746;2023-04-09T04:23:57;100069.09;;;9.21;100.00
4745;BME280;2386;42.138;24.746;2023-04-09T04:26:22;100069.72;;;9.36;100.00
4745;BME280;2386;42.138;24.746;2023-04-09T04:28:48;100070.97;;;9.27;100.00
4745;BME280;2386;42.138;24.746;2023-04-09T04:31:13;100063.03;;;9.39;100.00
4745;BME280;2386;42.138;24.746;2023-04-09T04:33:40;100073.63;;;9.47;100.00
4745;BME280;2386;42.138;24.746;2023-04-09T04:36:10;100066.97;;;9.43;100.00
4745;BME280;2386;42.138;24.746;2023-04-09T04:38:37;100071.81;;;9.28;100.00
4745;BME280;2386;42.138;24.746;2023-04-09T04:41:03;100079.72;;;9.29;100.00
4745;BME280;2386;42.138;24.746;2023-04-09T04:43:29;100077.00;;;9.36;100.00
4745;BME280;2386;42.138;24.746;2023-04-09T04:45:55;100072.22;;;9.31;100.00
4745;BME280;2386;42.138;24.746;2023-04-09T04:48:21;100069.69;;;9.43;100.00
4745;BME280;2386;42.138;24.746;2023-04-09T04:50:53;100081.81;;;9.27;100.00
4745;BME280;2386;42.138;24.746;2023-04-09T04:53:19;100085.94;;;9.36;100.00
4745;BME280;2386;42.138;24.746;2023-04-09T04:55:44;100080.34;;;9.25;100.00
4745;BME280;2386;42.138;24.746;2023-04-09T04:58:09;100072.00;;;9.33;100.00
4745;BME280;2386;42.138;24.746;2023-04-09T05:00:35;100078.66;;;9.37;100.00
4745;BME280;2386;42.138;24.746;2023-04-09T05:03:00;100082.22;;;9.31;100.00
4745;BME280;2386;42.138;24.746;2023-04-09T05:05:25;100073.88;;;9.26;100.00
4745;BME280;2386;42.138;24.746;2023-04-09T05:07:51;100071.16;;;9.39;100.00
4745;BME280;2386;42.138;24.746;2023-04-09T05:10:16;100078.03;;;9.35;100.00
4745;BME280;2386;42.138;24.746;2023-04-09T05:12:42;100079.66;;;9.55;100.00
4745;BME280;2386;42.138;24.746;2023-04-09T05:15:07;100074.69;;;9.46;100.00
4745;BME280;2386;42.138;24.746;2023-04-09T05:17:32;100079.06;;;9.47;100.00
4745;BME280;2386;42.138;24.746;2023-04-09T05:19:58;100086.53;;;9.58;100.00
4745;BME280;2386;42.138;24.746;2023-04-09T05:22:23;100074.56;;;9.79;100.00
4745;BME280;2386;42.138;24.746;2023-04-09T05:24:49;100084.72;;;9.90;100.00
4745;BME280;2386;42.138;24.746;2023-04-09T05:27:14;100079.09;;;9.92;100.00
4745;BME280;2386;42.138;24.746;2023-04-09T05:29:40;100071.97;;;9.97;100.00
4745;BME280;2386;42.138;24.746;2023-04-09T05:32:05;100083.47;;;9.93;100.00
4745;BME280;2386;42.138;24.746;2023-04-09T05:34:33;100082.84;;;9.91;100.00
4745;BME280;2386;42.138;24.746;2023-04-09T05:36:59;100083.94;;;9.76;100.00
4745;BME280;2386;42.138;24.746;2023-04-09T05:39:24;100090.81;;;9.79;100.00
4745;BME280;2386;42.138;24.746;2023-04-09T05:41:49;100089.91;;;9.98;100.00
4745;BME280;2386;42.138;24.746;2023-04-09T05:44:16;100093.16;;;10.13;100.00
4745;BME280;2386;42.138;24.746;2023-04-09T05:46:42;100095.22;;;10.18;100.00
4745;BME280;2386;42.138;24.746;2023-04-09T05:49:07;100099.03;;;10.04;100.00
4745;BME280;2386;42.138;24.746;2023-04-09T05:51:32;100097.75;;;10.13;100.00
4745;BME280;2386;42.138;24.746;2023-04-09T05:53:58;100101.31;;;10.07;100.00
4745;BME280;2386;42.138;24.746;2023-04-09T05:56:23;100101.28;;;10.20;100.00
4745;BME280;2386;42.138;24.746;2023-04-09T05:58:50;100100.00;;;10.29;100.00
4745;BME280;2386;42.138;24.746;2023-04-09T06:01:15;100100.44;;;10.26;100.00
4745;BME280;2386;42.138;24.746;2023-04-09T06:03:41;100099.41;;;10.20;100.00
4745;BME280;2386;42.138;24.746;2023-04-09T06:06:06;100107.88;;;10.37;100.00
4745;BME280;2386;42.138;24.746;2023-04-09T06:08:31;100115.47;;;10.22;100.00
4745;BME280;2386;42.138;24.746;2023-04-09T06:10:57;100115.25;;;10.24;100.00
4745;BME280;2386;42.138;24.746;2023-04-09T06:13:22;100106.06;;;10.25;100.00
4745;BME280;2386;42.138;24.746;2023-04-09T06:15:48;100115.56;;;10.40;100.00
4745;BME280;2386;42.138;24.746;2023-04-09T06:18:13;100114.59;;;10.60;100.00
4745;BME280;2386;42.138;24.746;2023-04-09T06:20:39;100111.81;;;10.73;100.00
4745;BME280;2386;42.138;24.746;2023-04-09T06:23:04;100110.47;;;10.82;100.00
4745;BME280;2386;42.138;24.746;2023-04-09T06:25:29;100098.41;;;10.78;100.00
4745;BME280;2386;42.138;24.746;2023-04-09T06:27:55;100106.34;;;11.04;100.00
4745;BME280;2386;42.138;24.746;2023-04-09T06:30:21;100108.09;;;10.92;100.00
4745;BME280;2386;42.138;24.746;2023-04-09T06:32:47;100104.72;;;10.72;100.00
4745;BME280;2386;42.138;24.746;2023-04-09T06:35:13;100112.31;;;10.88;100.00
4745;BME280;2386;42.138;24.746;2023-04-09T06:37:39;100117.91;;;10.93;100.00
4745;BME280;2386;42.138;24.746;2023-04-09T06:40:04;100108.72;;;10.94;100.00
4745;BME280;2386;42.138;24.746;2023-04-09T06:42:30;100108.31;;;11.15;100.00
4745;BME280;2386;42.138;24.746;2023-04-09T06:44:56;100112.78;;;11.28;100.00
4745;BME280;2386;42.138;24.746;2023-04-09T06:47:21;100108.13;;;11.35;99.60
4745;BME280;2386;42.138;24.746;2023-04-09T06:49:47;100113.81;;;11.52;96.95
4745;BME280;2386;42.138;24.746;2023-04-09T06:52:12;100109.44;;;11.51;96.47
4745;BME280;2386;42.138;24.746;2023-04-09T06:54:37;100120.91;;;11.53;96.98
4745;BME280;2386;42.138;24.746;2023-04-09T06:57:03;100108.38;;;11.52;95.67
4745;BME280;2386;42.138;24.746;2023-04-09T06:59:28;100119.03;;;11.72;95.09
4745;BME280;2386;42.138;24.746;2023-04-09T07:01:53;100120.88;;;11.78;95.56
4745;BME280;2386;42.138;24.746;2023-04-09T07:04:19;100125.06;;;11.74;95.22
4745;BME280;2386;42.138;24.746;2023-04-09T07:06:45;100119.25;;;11.52;96.05
4745;BME280;2386;42.138;24.746;2023-04-09T07:09:10;100124.47;;;11.72;96.70
4745;BME280;2386;42.138;24.746;2023-04-09T07:11:36;100119.13;;;12.02;93.91
4745;BME280;2386;42.138;24.746;2023-04-09T07:14:01;100117.38;;;12.07;93.70
4745;BME280;2386;42.138;24.746;2023-04-09T07:16:26;100123.03;;;11.69;93.24
4745;BME280;2386;42.138;24.746;2023-04-09T07:18:52;100120.59;;;11.86;94.31
4745;BME280;2386;42.138;24.746;2023-04-09T07:21:17;100115.72;;;12.06;91.82
4745;BME280;2386;42.138;24.746;2023-04-09T07:23:43;100125.69;;;12.12;92.94
4745;BME280;2386;42.138;24.746;2023-04-09T07:26:08;100107.19;;;12.03;93.30
4745;BME280;2386;42.138;24.746;2023-04-09T07:28:34;100108.88;;;12.34;91.33
4745;BME280;2386;42.138;24.746;2023-04-09T07:31:00;100115.00;;;12.29;91.14
4745;BME280;2386;42.138;24.746;2023-04-09T07:33:28;100116.53;;;12.55;89.76
4745;BME280;2386;42.138;24.746;2023-04-09T07:35:53;100111.09;;;12.67;87.65
4745;BME280;2386;42.138;24.746;2023-04-09T07:38:20;100109.19;;;12.67;86.50
4745;BME280;2386;42.138;24.746;2023-04-09T07:40:45;100114.94;;;12.89;85.96
4745;BME280;2386;42.138;24.746;2023-04-09T07:43:11;100108.19;;;12.92;85.39
4745;BME280;2386;42.138;24.746;2023-04-09T07:45:36;100106.44;;;12.97;84.50
4745;BME280;2386;42.138;24.746;2023-04-09T07:48:02;100107.56;;;12.78;84.02
4745;BME280;2386;42.138;24.746;2023-04-09T07:50:28;100112.66;;;12.74;85.21
4745;BME280;2386;42.138;24.746;2023-04-09T07:52:53;100110.28;;;12.78;84.36
4745;BME280;2386;42.138;24.746;2023-04-09T07:55:19;100118.56;;;12.71;86.12
4745;BME280;2386;42.138;24.746;2023-04-09T07:57:45;100111.25;;;12.83;84.72
4745;BME280;2386;42.138;24.746;2023-04-09T08:00:10;100115.03;;;12.82;85.33
4745;BME280;2386;42.138;24.746;2023-04-09T08:02:36;100113.94;;;12.72;82.93
4745;BME280;2386;42.138;24.746;2023-04-09T08:05:02;100114.13;;;13.00;82.76
4745;BME280;2386;42.138;24.746;2023-04-09T08:07:27;100112.41;;;13.18;81.20
4745;BME280;2386;42.138;24.746;2023-04-09T08:09:52;100121.03;;;13.14;82.05
4745;BME280;2386;42.138;24.746;2023-04-09T08:12:18;100121.06;;;13.26;80.08
4745;BME280;2386;42.138;24.746;2023-04-09T08:14:43;100121.03;;;13.38;80.50
4745;BME280;2386;42.138;24.746;2023-04-09T08:17:09;100122.00;;;13.43;78.24
4745;BME280;2386;42.138;24.746;2023-04-09T08:19:34;100124.25;;;13.46;78.33
4745;BME280;2386;42.138;24.746;2023-04-09T08:22:01;100124.72;;;13.67;77.52
4745;BME280;2386;42.138;24.746;2023-04-09T08:24:27;100116.19;;;13.40;77.66
4745;BME280;2386;42.138;24.746;2023-04-09T08:26:52;100111.56;;;13.52;77.95
4745;BME280;2386;42.138;24.746;2023-04-09T08:29:18;100111.91;;;13.67;76.70
4745;BME280;2386;42.138;24.746;2023-04-09T08:31:43;100108.84;;;13.52;75.95
4745;BME280;2386;42.138;24.746;2023-04-09T08:34:09;100105.31;;;13.17;77.59
4745;BME280;2386;42.138;24.746;2023-04-09T08:36:35;100110.38;;;13.60;77.22
4745;BME280;2386;42.138;24.746;2023-04-09T08:39:02;100105.50;;;13.62;74.50
4745;BME280;2386;42.138;24.746;2023-04-09T08:41:28;100110.25;;;13.66;75.39
4745;BME280;2386;42.138;24.746;2023-04-09T08:43:54;100106.22;;;13.80;74.66
4745;BME280;2386;42.138;24.746;2023-04-09T08:46:20;100106.63;;;14.01;73.78
4745;BME280;2386;42.138;24.746;2023-04-09T08:48:48;100109.13;;;14.02;72.57
4745;BME280;2386;42.138;24.746;2023-04-09T08:53:43;100099.47;;;14.40;71.04
4745;BME280;2386;42.138;24.746;2023-04-09T08:56:09;100090.06;;;14.59;71.85
4745;BME280;2386;42.138;24.746;2023-04-09T08:58:35;100109.78;;;14.78;69.85
4745;BME280;2386;42.138;24.746;2023-04-09T09:01:00;100104.47;;;14.88;68.62
4745;BME280;2386;42.138;24.746;2023-04-09T09:03:26;100100.75;;;14.77;67.21
4745;BME280;2386;42.138;24.746;2023-04-09T09:05:51;100110.59;;;14.95;67.72
4745;BME280;2386;42.138;24.746;2023-04-09T09:08:24;100098.09;;;14.99;68.34
4745;BME280;2386;42.138;24.746;2023-04-09T09:10:50;100104.72;;;15.20;66.37
4745;BME280;2386;42.138;24.746;2023-04-09T09:13:26;100098.75;;;15.40;65.62
4745;BME280;2386;42.138;24.746;2023-04-09T09:15:54;100094.84;;;15.53;65.41
4745;BME280;2386;42.138;24.746;2023-04-09T09:18:40;100095.94;;;15.73;63.60
4745;BME280;2386;42.138;24.746;2023-04-09T09:21:14;100091.06;;;15.75;63.60
4745;BME280;2386;42.138;24.746;2023-04-09T09:23:40;100085.66;;;15.59;63.04
4745;BME280;2386;42.138;24.746;2023-04-09T09:26:33;100086.00;;;15.29;63.96
4745;BME280;2386;42.138;24.746;2023-04-09T09:29:02;100082.97;;;15.64;63.30
4745;BME280;2386;42.138;24.746;2023-04-09T09:31:29;100082.59;;;15.77;63.08
4745;BME280;2386;42.138;24.746;2023-04-09T09:33:55;100074.00;;;15.68;61.52
4745;BME280;2386;42.138;24.746;2023-04-09T09:36:33;100068.41;;;15.80;61.48
4745;BME280;2386;42.138;24.746;2023-04-09T09:39:01;100079.63;;;15.57;61.32
4745;BME280;2386;42.138;24.746;2023-04-09T09:41:29;100076.41;;;15.65;60.60
4745;BME280;2386;42.138;24.746;2023-04-09T09:43:55;100075.19;;;15.56;60.93
4745;BME280;2386;42.138;24.746;2023-04-09T09:46:21;100061.31;;;15.40;61.96
4745;BME280;2386;42.138;24.746;2023-04-09T09:48:46;100055.34;;;15.43;61.07
4745;BME280;2386;42.138;24.746;2023-04-09T09:51:14;100066.91;;;15.51;60.59
4745;BME280;2386;42.138;24.746;2023-04-09T09:53:43;100058.91;;;15.44;60.46
4745;BME280;2386;42.138;24.746;2023-04-09T09:56:21;100060.97;;;15.37;59.85
4745;BME280;2386;42.138;24.746;2023-04-09T10:01:43;100060.66;;;15.17;58.59
4745;BME280;2386;42.138;24.746;2023-04-09T10:04:13;100060.81;;;15.27;58.67
4745;BME280;2386;42.138;24.746;2023-04-09T10:06:42;100050.72;;;15.27;60.40
4745;BME280;2386;42.138;24.746;2023-04-09T10:09:08;100048.91;;;15.16;59.42
4745;BME280;2386;42.138;24.746;2023-04-09T10:11:35;100054.22;;;15.06;61.30
4745;BME280;2386;42.138;24.746;2023-04-09T10:14:01;100047.66;;;15.24;61.49
4745;BME280;2386;42.138;24.746;2023-04-09T10:16:27;100042.03;;;15.30;59.17
4745;BME280;2386;42.138;24.746;2023-04-09T10:18:57;100032.50;;;15.33;58.45
4745;BME280;2386;42.138;24.746;2023-04-09T10:23:49;100033.13;;;15.40;58.09
4745;BME280;2386;42.138;24.746;2023-04-09T10:26:17;100029.78;;;15.55;58.07
4745;BME280;2386;42.138;24.746;2023-04-09T10:28:42;100033.03;;;15.52;55.00
4745;BME280;2386;42.138;24.746;2023-04-09T10:31:07;100017.63;;;15.45;54.87
4745;BME280;2386;42.138;24.746;2023-04-09T10:33:36;100013.75;;;15.41;55.50
4745;BME280;2386;42.138;24.746;2023-04-09T10:36:03;100012.56;;;15.54;54.16
4745;BME280;2386;42.138;24.746;2023-04-09T10:38:34;100006.06;;;15.60;54.89
4745;BME280;2386;42.138;24.746;2023-04-09T10:43:39;100000.34;;;15.84;53.48
4745;BME280;2386;42.138;24.746;2023-04-09T10:46:24;100005.81;;;15.84;52.75
4745;BME280;2386;42.138;24.746;2023-04-09T10:49:17;100011.34;;;15.89;54.75
4745;BME280;2386;42.138;24.746;2023-04-09T10:52:03;100001.41;;;16.04;55.41
4745;BME280;2386;42.138;24.746;2023-04-09T11:08:09;99984.97;;;16.31;44.12
4745;BME280;2386;42.138;24.746;2023-04-09T11:10:37;99980.44;;;16.15;44.70
4745;BME280;2386;42.138;24.746;2023-04-09T11:13:03;99972.38;;;16.03;43.62
4745;BME280;2386;42.138;24.746;2023-04-09T11:15:30;99971.50;;;15.98;44.08
4745;BME280;2386;42.138;24.746;2023-04-09T11:17:56;99961.06;;;15.95;43.92
4745;BME280;2386;42.138;24.746;2023-04-09T11:20:23;99962.31;;;15.82;43.76
4745;BME280;2386;42.138;24.746;2023-04-09T11:22:50;99965.81;;;15.77;44.27
4745;BME280;2386;42.138;24.746;2023-04-09T11:25:18;99946.97;;;15.81;44.32
4745;BME280;2386;42.138;24.746;2023-04-09T11:27:44;99948.53;;;15.99;43.00
4745;BME280;2386;42.138;24.746;2023-04-09T11:30:10;99943.06;;;15.99;42.40
4745;BME280;2386;42.138;24.746;2023-04-09T11:32:36;99935.72;;;16.04;42.08
4745;BME280;2386;42.138;24.746;2023-04-09T11:35:01;99949.19;;;16.11;42.88
4745;BME280;2386;42.138;24.746;2023-04-09T11:37:27;99933.41;;;16.18;43.08
4745;BME280;2386;42.138;24.746;2023-04-09T11:39:53;99927.63;;;16.15;41.19
4745;BME280;2386;42.138;24.746;2023-04-09T11:42:19;99934.47;;;16.17;42.14
4745;BME280;2386;42.138;24.746;2023-04-09T11:44:46;99915.78;;;16.09;41.44
4745;BME280;2386;42.138;24.746;2023-04-09T11:47:13;99921.88;;;16.16;41.72
4745;BME280;2386;42.138;24.746;2023-04-09T11:49:41;99929.94;;;16.28;42.93
4745;BME280;2386;42.138;24.746;2023-04-09T11:52:06;99917.09;;;16.33;41.74
4745;BME280;2386;42.138;24.746;2023-04-09T11:54:32;99919.56;;;16.35;40.74
4745;BME280;2386;42.138;24.746;2023-04-09T11:56:59;99912.59;;;16.17;39.62
4745;BME280;2386;42.138;24.746;2023-04-09T11:59:24;99915.38;;;16.22;41.57
4745;BME280;2386;42.138;24.746;2023-04-09T12:01:50;99900.94;;;16.32;44.01
4745;BME280;2386;42.138;24.746;2023-04-09T12:04:20;99908.06;;;16.38;42.97
4745;BME280;2386;42.138;24.746;2023-04-09T12:06:46;99893.69;;;16.53;42.93
4745;BME280;2386;42.138;24.746;2023-04-09T12:09:11;99895.50;;;16.74;41.88
4745;BME280;2386;42.138;24.746;2023-04-09T12:11:41;99886.81;;;16.87;39.97
4745;BME280;2386;42.138;24.746;2023-04-09T12:14:11;99890.72;;;17.01;40.33
4745;BME280;2386;42.138;24.746;2023-04-09T12:16:37;99887.75;;;17.13;40.21
4745;BME280;2386;42.138;24.746;2023-04-09T12:19:06;99885.41;;;17.42;40.88
4745;BME280;2386;42.138;24.746;2023-04-09T12:21:48;99884.94;;;17.65;40.33
4745;BME280;2386;42.138;24.746;2023-04-09T12:24:15;99881.66;;;17.84;39.72
4745;BME280;2386;42.138;24.746;2023-04-09T12:26:41;99875.66;;;17.92;38.67
4745;BME280;2386;42.138;24.746;2023-04-09T12:29:06;99884.72;;;18.13;38.77
4745;BME280;2386;42.138;24.746;2023-04-09T12:31:32;99870.69;;;18.75;38.56
4745;BME280;2386;42.138;24.746;2023-04-09T12:33:57;99875.59;;;20.31;35.86
4745;BME280;2386;42.138;24.746;2023-04-09T12:36:23;99856.66;;;21.86;33.62
4745;BME280;2386;42.138;24.746;2023-04-09T12:38:48;99876.47;;;23.05;32.02
4745;BME280;2386;42.138;24.746;2023-04-09T12:41:15;99867.22;;;23.50;31.25
4745;BME280;2386;42.138;24.746;2023-04-09T12:43:40;99876.97;;;23.84;30.03
4745;BME280;2386;42.138;24.746;2023-04-09T12:46:08;99862.94;;;23.03;30.38
4745;BME280;2386;42.138;24.746;2023-04-09T12:48:33;99860.84;;;22.68;31.59
4745;BME280;2386;42.138;24.746;2023-04-09T12:50:59;99868.09;;;22.17;32.59
4745;BME280;2386;42.138;24.746;2023-04-09T12:53:25;99858.09;;;21.84;33.03
4745;BME280;2386;42.138;24.746;2023-04-09T12:55:50;99864.03;;;21.11;34.43
4745;BME280;2386;42.138;24.746;2023-04-09T12:58:16;99852.59;;;20.98;36.09
4745;BME280;2386;42.138;24.746;2023-04-09T13:00:41;99849.19;;;21.07;34.67
4745;BME280;2386;42.138;24.746;2023-04-09T13:03:07;99847.69;;;22.46;32.71
4745;BME280;2386;42.138;24.746;2023-04-09T13:05:32;99850.34;;;24.33;30.91
4745;BME280;2386;42.138;24.746;2023-04-09T13:08:00;99837.22;;;25.35;28.98
4745;BME280;2386;42.138;24.746;2023-04-09T13:10:26;99841.06;;;25.91;27.36
4745;BME280;2386;42.138;24.746;2023-04-09T13:12:52;99845.09;;;27.30;25.92
4745;BME280;2386;42.138;24.746;2023-04-09T13:15:17;99840.53;;;27.25;25.55
4745;BME280;2386;42.138;24.746;2023-04-09T13:17:43;99832.59;;;27.57;25.18
4745;BME280;2386;42.138;24.746;2023-04-09T13:20:08;99840.47;;;29.07;24.34
4745;BME280;2386;42.138;24.746;2023-04-09T13:22:34;99827.72;;;30.11;23.98
4745;BME280;2386;42.138;24.746;2023-04-09T13:25:00;99821.00;;;31.19;22.58
4745;BME280;2386;42.138;24.746;2023-04-09T13:27:26;99829.78;;;31.17;21.94
4745;BME280;2386;42.138;24.746;2023-04-09T13:29:51;99830.22;;;30.88;21.90
4745;BME280;2386;42.138;24.746;2023-04-09T13:32:16;99822.88;;;32.04;21.21
4745;BME280;2386;42.138;24.746;2023-04-09T13:34:43;99826.16;;;30.85;21.48
4745;BME280;2386;42.138;24.746;2023-04-09T13:37:08;99829.63;;;31.80;21.44